Time;durP1;ratioP1;P1;durP2;ratioP2;P2;SDS_P1;SDS_P2;PMS_P1;PMS_P2;Temp;Humidity;BMP_temperature;BMP_pressure;BME280_temperature;BME280_humidity;BME280_pressure;Samples;Min_cycle;Max_cycle;Signal;HPM_P1;HPM_P2
2022/04/16 00:00:58;;;;;;;1.83;1.73;;;3.30;99.90;;;;;;5019904;28;20406;-67
2022/04/16 00:03:24;;;;;;;1.70;1.53;;;3.30;99.90;;;;;;5030957;28;20533;-67
2022/04/16 00:05:51;;;;;;;3.47;2.83;;;3.40;99.90;;;;;;5030342;28;20641;-67
2022/04/16 00:08:18;;;;;;;2.37;2.17;;;3.30;99.90;;;;;;5030669;28;20249;-67
2022/04/16 00:10:43;;;;;;;3.83;2.50;;;3.30;99.90;;;;;;5030410;28;20552;-67
2022/04/16 00:13:09;;;;;;;2.63;2.40;;;3.20;99.90;;;;;;5030433;28;20514;-67
2022/04/16 00:15:34;;;;;;;1.83;1.27;;;3.20;99.90;;;;;;5031735;28;20164;-67
2022/04/16 00:18:00;;;;;;;3.53;1.57;;;3.10;99.90;;;;;;5034054;28;20658;-67
2022/04/16 00:20:26;;;;;;;1.63;1.10;;;3.10;99.90;;;;;;5033872;28;20164;-67
2022/04/16 00:22:53;;;;;;;1.87;1.23;;;3.10;99.90;;;;;;5034074;28;20191;-67
2022/04/16 00:25:19;;;;;;;3.63;1.50;;;3.10;99.90;;;;;;5034357;28;20450;-67
2022/04/16 00:27:44;;;;;;;2.47;1.17;;;3.00;99.90;;;;;;5034591;28;20426;-67
2022/04/16 00:30:10;;;;;;;1.97;1.43;;;3.00;99.90;;;;;;5034519;28;20433;-67
2022/04/16 00:32:35;;;;;;;3.90;1.47;;;3.00;99.90;;;;;;5034661;28;20199;-67
2022/04/16 00:35:02;;;;;;;1.10;1.00;;;3.00;99.90;;;;;;5034485;28;20555;-67
2022/04/16 00:37:27;;;;;;;1.20;1.10;;;2.90;99.90;;;;;;5035115;28;20164;-67
2022/04/16 00:39:53;;;;;;;1.20;1.10;;;2.90;99.90;;;;;;5034589;28;20402;-67
2022/04/16 00:42:18;;;;;;;1.20;1.10;;;2.80;99.90;;;;;;5034352;28;20630;-67
2022/04/16 00:44:44;;;;;;;1.30;1.20;;;2.80;99.90;;;;;;5034382;28;20203;-67
2022/04/16 00:47:09;;;;;;;1.33;1.00;;;2.80;99.90;;;;;;5034466;28;20176;-67
2022/04/16 00:49:35;;;;;;;1.27;1.17;;;2.70;99.90;;;;;;5034467;28;20194;-68
2022/04/16 00:52:02;;;;;;;2.73;1.37;;;2.70;99.90;;;;;;5034470;28;20203;-67
2022/04/16 00:54:27;;;;;;;1.37;1.07;;;2.60;99.90;;;;;;5035531;28;20429;-67
2022/04/16 00:56:53;;;;;;;1.60;1.50;;;2.60;99.90;;;;;;5035575;28;20422;-67
2022/04/16 00:59:19;;;;;;;0.90;0.90;;;2.60;99.90;;;;;;5035535;28;20195;-68
2022/04/16 01:01:44;;;;;;;1.13;1.07;;;2.50;99.90;;;;;;5036667;28;20167;-67
2022/04/16 01:04:09;;;;;;;1.10;1.00;;;2.50;99.90;;;;;;5035505;28;20568;-67
2022/04/16 01:06:39;;;;;;;1.30;1.20;;;2.50;99.90;;;;;;5034004;28;20167;-67
2022/04/16 01:09:05;;;;;;;1.33;1.23;;;2.50;99.90;;;;;;5033467;28;20552;-67
2022/04/16 01:11:32;;;;;;;1.30;1.20;;;2.40;99.90;;;;;;5033053;28;20402;-67
2022/04/16 01:13:58;;;;;;;1.27;1.17;;;2.40;99.90;;;;;;5033100;28;20406;-67
2022/04/16 01:16:24;;;;;;;1.17;1.07;;;2.40;99.90;;;;;;5033265;28;20840;-67
2022/04/16 01:18:50;;;;;;;0.93;0.93;;;2.30;99.90;;;;;;5033012;28;20541;-67
2022/04/16 01:21:16;;;;;;;2.10;1.40;;;2.30;99.90;;;;;;5032955;28;20171;-67
2022/04/16 01:23:41;;;;;;;1.20;1.00;;;2.30;99.90;;;;;;5032705;28;20809;-67
2022/04/16 01:26:07;;;;;;;1.40;1.30;;;2.20;99.90;;;;;;5032558;28;20270;-67
2022/04/16 01:28:33;;;;;;;1.13;1.10;;;2.20;99.90;;;;;;5033123;28;20192;-67
2022/04/16 01:30:58;;;;;;;1.53;1.20;;;2.20;99.90;;;;;;5032792;28;20920;-67
2022/04/16 01:33:24;;;;;;;1.07;0.97;;;2.20;99.90;;;;;;5032624;28;20290;-67
2022/04/16 01:35:56;;;;;;;1.27;1.17;;;2.20;99.90;;;;;;5032962;28;20281;-67
2022/04/16 01:38:22;;;;;;;1.77;1.67;;;2.20;99.90;;;;;;5032548;28;20211;-67
2022/04/16 01:40:47;;;;;;;1.80;0.90;;;2.10;99.90;;;;;;5032411;28;20427;-67
2022/04/16 01:43:13;;;;;;;1.80;1.70;;;2.10;99.90;;;;;;5032526;28;20406;-67
2022/04/16 01:45:39;;;;;;;1.63;1.17;;;2.10;99.90;;;;;;5032434;28;20274;-67
2022/04/16 01:48:04;;;;;;;1.60;1.20;;;2.10;99.90;;;;;;5032317;28;20203;-67
2022/04/16 01:50:30;;;;;;;0.83;0.83;;;2.10;99.90;;;;;;5032415;28;20437;-67
2022/04/16 01:52:56;;;;;;;1.63;1.53;;;2.10;99.90;;;;;;5032207;28;20759;-67
2022/04/16 01:55:21;;;;;;;1.20;1.10;;;2.10;99.90;;;;;;5030671;28;20418;-67
2022/04/16 01:57:47;;;;;;;0.90;0.90;;;2.10;99.90;;;;;;5032373;28;20192;-67
2022/04/16 02:00:14;;;;;;;1.07;1.00;;;2.10;99.90;;;;;;5032366;28;20273;-67
2022/04/16 02:02:41;;;;;;;1.30;1.20;;;2.10;99.90;;;;;;5032311;28;20179;-67
2022/04/16 02:05:08;;;;;;;2.63;1.90;;;2.10;99.90;;;;;;5032054;28;20557;-67
2022/04/16 02:07:34;;;;;;;1.27;1.17;;;2.10;99.90;;;;;;5031863;28;20426;-67
2022/04/16 02:10:00;;;;;;;3.60;1.80;;;2.10;99.90;;;;;;5031733;28;20406;-67
2022/04/16 02:12:26;;;;;;;1.43;1.10;;;2.20;99.90;;;;;;5032101;28;20163;-67
2022/04/16 02:14:52;;;;;;;1.50;1.40;;;2.10;99.90;;;;;;5031893;28;20502;-67
2022/04/16 02:17:17;;;;;;;1.10;0.93;;;2.20;99.90;;;;;;5031725;28;20410;-67
2022/04/16 02:19:43;;;;;;;1.10;1.10;;;2.20;99.90;;;;;;5031535;28;20222;-66
2022/04/16 02:22:09;;;;;;;0.93;0.90;;;2.20;99.90;;;;;;5031518;28;20190;-66
2022/04/16 02:24:35;;;;;;;1.30;1.20;;;2.10;99.90;;;;;;5031384;28;20279;-66
2022/04/16 02:27:01;;;;;;;1.10;1.00;;;2.20;99.90;;;;;;5031850;28;20179;-67
2022/04/16 02:29:26;;;;;;;1.83;1.60;;;2.10;99.90;;;;;;5031532;28;20426;-67
2022/04/16 02:31:52;;;;;;;1.20;1.10;;;2.20;99.90;;;;;;5031491;28;20160;-67
2022/04/16 02:34:19;;;;;;;1.87;1.77;;;2.10;99.90;;;;;;5031481;28;20654;-67
2022/04/16 02:36:44;;;;;;;1.63;1.43;;;2.20;99.90;;;;;;5031514;28;20176;-67
2022/04/16 02:39:10;;;;;;;1.03;1.00;;;2.20;99.90;;;;;;5030595;28;20437;-67
2022/04/16 02:41:35;;;;;;;1.43;1.33;;;2.20;99.90;;;;;;5031383;28;20199;-67
2022/04/16 02:44:01;;;;;;;2.20;1.23;;;2.20;99.90;;;;;;5031253;28;20207;-67
2022/04/16 02:49:13;;;;;;;2.00;1.90;;;2.20;99.90;;;;;;5031237;28;20191;-67
2022/04/16 02:51:39;;;;;;;1.30;1.00;;;2.10;99.90;;;;;;5031025;28;20406;-67
2022/04/16 02:54:05;;;;;;;1.73;1.53;;;2.10;99.90;;;;;;5031209;28;20509;-69
2022/04/16 02:56:31;;;;;;;1.20;1.10;;;2.10;99.90;;;;;;5031284;28;20183;-67
2022/04/16 02:58:57;;;;;;;1.57;1.47;;;2.10;99.90;;;;;;5031193;28;20426;-67
2022/04/16 03:01:22;;;;;;;3.23;1.33;;;2.10;99.90;;;;;;5030994;28;20837;-67
2022/04/16 03:03:48;;;;;;;1.30;1.20;;;2.20;99.90;;;;;;5031169;28;20192;-66
2022/04/16 03:06:13;;;;;;;1.43;1.20;;;2.20;99.90;;;;;;5030981;28;20178;-67
2022/04/16 03:08:38;;;;;;;1.63;1.43;;;2.20;99.90;;;;;;5031358;28;20191;-67
2022/04/16 03:11:04;;;;;;;1.30;1.00;;;2.30;99.90;;;;;;5031283;28;20556;-67
2022/04/16 03:13:34;;;;;;;1.67;1.50;;;2.30;99.90;;;;;;5031307;28;20199;-67
2022/04/16 03:18:47;;;;;;;3.23;1.40;;;2.30;99.90;;;;;;5030879;28;20477;-68
2022/04/16 03:21:13;;;;;;;1.63;1.00;;;2.30;99.90;;;;;;5030983;28;20888;-67
2022/04/16 03:23:38;;;;;;;0.93;0.93;;;2.30;99.90;;;;;;5029646;28;20191;-67
2022/04/16 03:26:04;;;;;;;4.40;1.00;;;2.30;99.90;;;;;;5030751;28;20411;-67
2022/04/16 03:28:31;;;;;;;1.77;1.67;;;2.30;99.90;;;;;;5030849;28;20430;-67
2022/04/16 03:30:57;;;;;;;1.47;1.37;;;2.30;99.90;;;;;;5030885;28;20253;-67
2022/04/16 03:33:23;;;;;;;2.37;2.20;;;2.30;99.90;;;;;;5031012;28;20422;-67
2022/04/16 03:35:49;;;;;;;1.47;1.33;;;2.30;99.90;;;;;;5031092;28;20449;-67
2022/04/16 03:38:14;;;;;;;1.47;1.37;;;2.30;99.90;;;;;;5051979;23;20217;-71
2022/04/16 03:40:40;;;;;;;1.33;1.20;;;2.30;99.90;;;;;;5011324;28;20634;-71
2022/04/16 03:43:06;;;;;;;1.20;1.05;;;2.30;99.90;;;;;;5011747;28;20282;-72
2022/04/16 03:45:34;;;;;;;0.90;0.90;;;2.30;99.90;;;;;;5011379;28;20220;-71
2022/04/16 03:48:01;;;;;;;0.90;0.90;;;2.40;99.90;;;;;;5002518;28;20439;-71
2022/04/16 03:50:28;;;;;;;1.07;1.07;;;2.40;99.90;;;;;;5011106;28;20419;-71
2022/04/16 03:52:55;;;;;;;1.33;1.30;;;2.40;99.90;;;;;;5016055;28;20411;-73
2022/04/16 04:00:57;;;;;;;1.70;1.10;;;2.50;99.90;;;;;;5018084;28;20478;-72
2022/04/16 04:03:23;;;;;;;1.80;1.70;;;2.50;99.90;;;;;;5016250;28;20435;-73
2022/04/16 04:05:49;;;;;;;2.00;1.50;;;2.50;99.90;;;;;;5015861;28;20630;-72
2022/04/16 04:08:16;;;;;;;6.87;1.90;;;2.50;99.90;;;;;;5015524;28;20522;-72
2022/04/16 04:10:41;;;;;;;1.50;1.10;;;2.60;99.90;;;;;;5015287;28;20494;-71
2022/04/16 04:13:07;;;;;;;2.10;2.00;;;2.50;99.90;;;;;;5015007;28;20487;-72
2022/04/16 04:15:33;;;;;;;1.67;1.30;;;2.60;99.90;;;;;;5015021;28;20188;-71
2022/04/16 04:17:59;;;;;;;1.20;1.10;;;2.60;99.90;;;;;;5014859;28;20909;-71
2022/04/16 04:20:25;;;;;;;1.50;1.40;;;2.60;99.90;;;;;;5015008;28;20160;-71
2022/04/16 04:22:51;;;;;;;5.97;1.10;;;2.60;99.90;;;;;;4995323;28;20788;-71
2022/04/16 04:25:16;;;;;;;0.93;0.93;;;2.60;99.90;;;;;;5002841;28;20454;-72
2022/04/16 04:27:42;;;;;;;0.93;0.93;;;2.60;99.90;;;;;;5014999;28;20180;-73
2022/04/16 04:30:08;;;;;;;1.10;1.00;;;2.60;99.90;;;;;;5014583;28;20192;-70
2022/04/16 04:32:35;;;;;;;2.83;1.70;;;2.60;99.90;;;;;;5014643;28;20203;-70
2022/04/16 04:35:01;;;;;;;1.40;1.30;;;2.60;99.90;;;;;;5014350;28;20933;-72
2022/04/16 04:37:27;;;;;;;1.70;1.60;;;2.70;99.90;;;;;;5014489;28;20449;-71
2022/04/16 04:39:52;;;;;;;5.43;1.60;;;2.60;99.90;;;;;;5014166;28;20307;-70
2022/04/16 04:42:29;;;;;;;1.50;1.30;;;2.70;99.90;;;;;;5014320;28;20650;-71
2022/04/16 04:44:55;;;;;;;2.47;2.27;;;2.70;99.90;;;;;;5014058;28;20310;-71
2022/04/16 04:47:20;;;;;;;1.77;1.60;;;2.70;99.90;;;;;;5014090;28;20494;-72
2022/04/16 04:49:46;;;;;;;2.20;1.73;;;2.80;99.90;;;;;;5014398;28;20477;-72
2022/04/16 04:52:20;;;;;;;1.50;1.40;;;2.80;99.90;;;;;;5014434;28;20172;-72
2022/04/16 04:54:46;;;;;;;1.50;1.40;;;2.80;99.90;;;;;;5014739;28;20198;-72
2022/04/16 04:57:11;;;;;;;1.37;1.27;;;2.90;99.90;;;;;;5013987;28;20403;-71
2022/04/16 04:59:37;;;;;;;1.47;1.37;;;2.90;99.90;;;;;;5013920;28;20200;-71
2022/04/16 05:02:03;;;;;;;1.30;1.30;;;3.00;99.90;;;;;;5013396;28;20542;-71
2022/04/16 05:04:28;;;;;;;1.53;1.43;;;3.00;99.90;;;;;;5013688;28;20228;-71
2022/04/16 05:06:53;;;;;;;1.20;1.00;;;3.00;99.90;;;;;;5013867;28;20172;-71
2022/04/16 05:09:19;;;;;;;1.37;1.20;;;3.00;99.90;;;;;;5013979;28;20251;-72
2022/04/16 05:11:44;;;;;;;1.43;1.33;;;3.10;99.90;;;;;;5014125;28;20172;-72
2022/04/16 05:14:10;;;;;;;4.30;1.70;;;3.10;99.90;;;;;;5014253;28;20217;-72
2022/04/16 05:16:35;;;;;;;1.83;1.37;;;3.30;99.90;;;;;;5014132;28;20706;-72
2022/04/16 05:19:00;;;;;;;1.10;1.00;;;3.30;99.90;;;;;;5014000;28;20663;-72
2022/04/16 05:21:26;;;;;;;2.03;1.87;;;3.40;99.90;;;;;;5013714;28;20192;-72
2022/04/16 05:23:51;;;;;;;4.10;1.60;;;3.50;99.90;;;;;;5013965;28;20196;-70
2022/04/16 05:26:17;;;;;;;1.70;1.60;;;3.50;99.90;;;;;;5020568;28;20179;-71
2022/04/16 05:28:43;;;;;;;1.30;1.17;;;3.60;99.90;;;;;;5033746;28;20219;-71
2022/04/16 05:31:09;;;;;;;3.60;1.17;;;3.60;99.90;;;;;;5033359;28;20857;-71
2022/04/16 05:36:19;;;;;;;1.97;1.77;;;3.70;99.90;;;;;;5013786;28;20661;-73
2022/04/16 05:38:45;;;;;;;1.70;1.57;;;3.70;99.90;;;;;;5013473;28;20439;-72
2022/04/16 05:41:11;;;;;;;1.90;1.50;;;3.80;99.90;;;;;;5013380;28;20578;-72
2022/04/16 05:43:36;;;;;;;1.37;1.07;;;3.90;99.90;;;;;;5013123;28;20513;-71
2022/04/16 05:46:02;;;;;;;1.57;1.47;;;4.00;99.90;;;;;;5013578;28;20403;-71
2022/04/16 05:48:28;;;;;;;1.30;1.20;;;4.10;99.90;;;;;;5013495;28;20207;-71
2022/04/16 05:50:53;;;;;;;1.23;1.03;;;4.20;99.90;;;;;;5013639;28;20164;-72
2022/04/16 05:53:20;;;;;;;1.97;1.47;;;4.30;99.90;;;;;;5013417;28;20243;-71
2022/04/16 05:55:48;;;;;;;2.03;1.23;;;4.30;99.90;;;;;;5013030;28;20172;-72
2022/04/16 05:58:14;;;;;;;3.80;1.17;;;4.50;99.90;;;;;;5012961;28;20776;-73
2022/04/16 06:00:40;;;;;;;1.50;1.40;;;4.50;99.90;;;;;;5022023;28;20791;-72
2022/04/16 06:03:06;;;;;;;1.73;1.50;;;4.50;99.90;;;;;;5032549;28;20407;-72
2022/04/16 06:05:31;;;;;;;6.83;1.90;;;4.60;99.90;;;;;;5032595;28;20442;-72
2022/04/16 06:07:58;;;;;;;2.97;1.87;;;4.60;99.90;;;;;;5032582;28;20406;-73
2022/04/16 06:10:24;;;;;;;1.37;1.17;;;4.90;99.90;;;;;;5031555;28;20254;-74
2022/04/16 06:12:49;;;;;;;2.00;1.47;;;5.00;99.90;;;;;;5031943;28;20564;-73
2022/04/16 06:15:15;;;;;;;1.73;1.63;;;5.00;99.90;;;;;;5032877;28;20431;-73
2022/04/16 06:17:40;;;;;;;1.83;1.73;;;5.10;99.90;;;;;;5032743;28;20582;-73
2022/04/16 06:20:07;;;;;;;1.63;1.53;;;5.10;99.90;;;;;;5032412;28;20249;-73
2022/04/16 06:22:33;;;;;;;1.93;1.83;;;5.10;99.90;;;;;;5032481;28;20175;-74
2022/04/16 06:24:58;;;;;;;1.53;1.30;;;5.10;99.90;;;;;;5032238;28;20841;-72
2022/04/16 06:27:24;;;;;;;1.73;1.63;;;5.10;99.90;;;;;;5032341;28;20175;-73
2022/04/16 06:29:49;;;;;;;1.57;1.47;;;5.20;99.90;;;;;;5032136;28;20187;-73
2022/04/16 06:32:15;;;;;;;1.70;1.60;;;5.20;99.90;;;;;;5029867;28;20174;-72
2022/04/16 06:34:40;;;;;;;1.07;1.03;;;5.10;99.90;;;;;;5011988;28;20263;-72
2022/04/16 06:37:06;;;;;;;5.87;1.77;;;5.10;99.90;;;;;;5012235;28;20187;-72
2022/04/16 06:39:31;;;;;;;1.30;1.20;;;5.10;99.90;;;;;;5012085;28;20684;-72
2022/04/16 06:41:57;;;;;;;1.57;1.07;;;5.30;99.90;;;;;;5012095;28;20165;-72
2022/04/16 06:44:22;;;;;;;2.90;1.77;;;5.30;99.90;;;;;;5011866;28;20697;-72
2022/04/16 06:46:50;;;;;;;1.50;1.40;;;5.50;99.90;;;;;;5012086;28;20168;-73
2022/04/16 06:49:15;;;;;;;3.73;1.57;;;5.80;99.90;;;;;;5011917;28;20670;-72
2022/04/16 06:51:41;;;;;;;1.60;1.50;;;5.90;99.90;;;;;;5012136;28;20418;-72
2022/04/16 06:54:06;;;;;;;2.53;1.83;;;6.20;99.90;;;;;;5012155;28;20584;-72
2022/04/16 06:56:32;;;;;;;3.60;1.47;;;6.20;99.90;;;;;;5011864;28;20176;-72
2022/04/16 06:58:57;;;;;;;2.50;1.87;;;6.30;99.90;;;;;;5010675;28;20188;-73
2022/04/16 07:01:23;;;;;;;2.20;1.70;;;6.30;99.90;;;;;;5011978;28;20539;-72
2022/04/16 07:03:48;;;;;;;1.73;1.63;;;6.70;99.90;;;;;;5012263;28;20200;-73
2022/04/16 07:06:14;;;;;;;2.40;1.80;;;6.70;99.90;;;;;;5011862;28;20169;-73
2022/04/16 07:08:39;;;;;;;3.37;3.03;;;6.80;99.90;;;;;;5011869;28;20184;-73
2022/04/16 07:11:05;;;;;;;2.30;2.03;;;7.20;99.90;;;;;;5011811;28;20179;-73
2022/04/16 07:13:30;;;;;;;1.93;1.73;;;7.40;99.90;;;;;;5011667;28;20161;-73
2022/04/16 07:15:56;;;;;;;1.40;1.30;;;8.30;99.90;;;;;;5011679;28;20685;-73
2022/04/16 07:18:21;;;;;;;3.10;1.87;;;8.00;99.90;;;;;;5011461;28;20242;-73
2022/04/16 07:20:47;;;;;;;2.10;1.63;;;8.30;99.90;;;;;;5011759;28;20460;-73
2022/04/16 07:23:12;;;;;;;1.13;1.03;;;8.90;99.90;;;;;;5011739;28;20214;-73
2022/04/16 07:25:38;;;;;;;2.40;1.00;;;10.00;99.90;;;;;;5011034;28;20526;-73
2022/04/16 07:28:04;;;;;;;1.03;0.93;;;10.10;99.90;;;;;;5023801;28;20167;-73
2022/04/16 07:30:29;;;;;;;1.27;1.10;;;10.20;99.90;;;;;;5031412;28;20226;-73
2022/04/16 07:32:55;;;;;;;1.87;0.87;;;10.00;99.90;;;;;;5023245;28;20247;-72
2022/04/16 07:35:20;;;;;;;1.27;1.00;;;10.30;99.90;;;;;;5011285;28;20168;-73
2022/04/16 07:37:46;;;;;;;1.13;1.00;;;11.00;99.90;;;;;;5011545;28;20168;-73
2022/04/16 07:40:12;;;;;;;4.07;1.20;;;11.30;99.90;;;;;;5011256;28;20591;-73
2022/04/16 07:42:38;;;;;;;1.10;0.80;;;11.00;99.90;;;;;;5011941;28;20168;-74
2022/04/16 07:45:05;;;;;;;2.23;1.10;;;12.00;99.90;;;;;;5011555;28;20463;-73
2022/04/16 07:47:30;;;;;;;0.93;0.87;;;12.00;99.90;;;;;;5011594;28;20658;-73
2022/04/16 07:49:56;;;;;;;1.87;1.27;;;12.20;99.90;;;;;;5011483;28;20438;-73
2022/04/16 07:52:24;;;;;;;1.10;1.00;;;10.80;99.90;;;;;;5011775;28;20188;-73
2022/04/16 07:54:51;;;;;;;1.27;0.90;;;11.80;99.90;;;;;;5012015;28;20177;-73
2022/04/16 07:57:16;;;;;;;4.10;1.10;;;12.40;99.90;;;;;;5011805;28;21027;-73
2022/04/16 07:59:42;;;;;;;1.80;1.30;;;11.60;99.90;;;;;;5011738;28;20494;-73
2022/04/16 08:02:07;;;;;;;1.40;0.97;;;12.30;99.90;;;;;;5011447;28;20250;-72
2022/04/16 08:04:33;;;;;;;0.90;0.90;;;12.10;99.90;;;;;;5011639;28;20672;-74
2022/04/16 08:06:58;;;;;;;1.63;1.10;;;11.30;99.90;;;;;;5012066;28;20176;-74
2022/04/16 08:09:24;;;;;;;0.70;0.70;;;11.40;99.90;;;;;;5011777;28;20693;-74
2022/04/16 08:11:49;;;;;;;1.13;1.00;;;12.20;99.90;;;;;;5011691;28;20177;-74
2022/04/16 08:14:15;;;;;;;1.63;1.43;;;11.50;99.90;;;;;;5011119;28;20181;-73
2022/04/16 08:16:40;;;;;;;1.53;1.20;;;10.80;99.90;;;;;;5011287;28;20795;-74
2022/04/16 08:19:06;;;;;;;0.80;0.80;;;11.00;99.90;;;;;;5011620;28;20199;-73
2022/04/16 08:21:34;;;;;;;2.00;1.07;;;11.20;99.90;;;;;;5011390;28;20172;-73
2022/04/16 08:24:13;;;;;;;1.83;0.90;;;11.40;99.90;;;;;;5011340;28;20197;-73
2022/04/16 08:26:39;;;;;;;1.10;1.00;;;11.30;99.90;;;;;;5011858;28;20487;-73
2022/04/16 08:29:05;;;;;;;1.10;0.90;;;11.00;99.90;;;;;;5030898;28;20426;-72
2022/04/16 08:31:30;;;;;;;1.13;0.97;;;10.80;99.90;;;;;;5031011;28;20999;-72
2022/04/16 08:33:56;;;;;;;2.70;1.40;;;10.90;99.90;;;;;;5015219;28;20177;-72
2022/04/16 08:36:21;;;;;;;1.00;0.90;;;10.30;99.90;;;;;;5011805;28;20177;-73
2022/04/16 08:38:47;;;;;;;3.53;0.90;;;9.80;99.90;;;;;;5014658;28;20230;-72
2022/04/16 08:41:13;;;;;;;1.47;1.00;;;10.70;99.90;;;;;;5014745;28;20190;-72
2022/04/16 08:43:42;;;;;;;0.90;0.90;;;11.40;99.90;;;;;;5014192;28;20262;-73
2022/04/16 08:46:07;;;;;;;1.10;0.80;;;11.80;99.90;;;;;;5014507;28;20419;-72
2022/04/16 08:48:33;;;;;;;1.40;1.07;;;12.70;99.10;;;;;;5014395;28;20512;-74
2022/04/16 08:50:59;;;;;;;1.10;0.80;;;12.50;96.30;;;;;;5014404;28;20172;-74
2022/04/16 08:53:25;;;;;;;2.37;1.73;;;12.90;97.00;;;;;;5014379;28;20175;-73
2022/04/16 08:55:50;;;;;;;1.20;1.10;;;13.10;96.70;;;;;;5014125;28;20574;-74
2022/04/16 08:58:16;;;;;;;0.80;0.70;;;13.10;95.70;;;;;;5013387;28;20169;-72
2022/04/16 09:00:41;;;;;;;0.70;0.70;;;13.10;93.80;;;;;;5014461;28;20163;-73
2022/04/16 09:03:09;;;;;;;1.20;1.10;;;12.70;93.40;;;;;;5013969;28;20690;-71
2022/04/16 09:05:35;;;;;;;1.27;0.93;;;12.20;93.70;;;;;;5013891;28;20653;-72
2022/04/16 09:08:03;;;;;;;0.73;0.70;;;12.70;93.60;;;;;;5013688;28;20773;-71
2022/04/16 09:10:29;;;;;;;1.50;0.83;;;12.60;92.90;;;;;;5014262;28;20404;-72
2022/04/16 09:12:57;;;;;;;1.53;1.03;;;12.70;92.20;;;;;;5013893;28;20511;-72
2022/04/16 09:15:23;;;;;;;1.00;0.90;;;12.50;92.50;;;;;;5013965;28;20429;-73
2022/04/16 09:17:59;;;;;;;0.83;0.83;;;13.00;90.70;;;;;;5014195;28;20411;-72
2022/04/16 09:20:29;;;;;;;0.70;0.70;;;12.80;91.00;;;;;;5014267;28;20443;-72
2022/04/16 09:22:55;;;;;;;1.10;1.00;;;12.70;89.00;;;;;;5013901;28;20506;-72
2022/04/16 09:25:21;;;;;;;0.80;0.70;;;12.70;90.40;;;;;;5013805;28;20537;-73
2022/04/16 09:27:49;;;;;;;1.43;1.10;;;13.00;88.70;;;;;;5023761;28;20531;-73
2022/04/16 09:30:29;;;;;;;1.00;0.90;;;12.70;88.60;;;;;;5033523;28;20186;-73
2022/04/16 09:32:56;;;;;;;0.70;0.70;;;12.60;87.10;;;;;;5025714;28;20430;-72
2022/04/16 09:35:35;;;;;;;0.80;0.80;;;12.30;88.80;;;;;;5013292;28;20411;-72
2022/04/16 09:38:06;;;;;;;1.10;1.00;;;12.40;89.60;;;;;;5013462;28;20417;-72
2022/04/16 09:40:36;;;;;;;4.20;1.00;;;12.30;86.90;;;;;;5036157;23;20541;-69
2022/04/16 09:43:06;;;;;;;1.00;0.90;;;12.30;87.90;;;;;;5014035;28;20429;-69
2022/04/16 09:45:33;;;;;;;1.43;1.00;;;12.10;87.30;;;;;;5014126;28;20470;-69
2022/04/16 09:47:59;;;;;;;0.80;0.80;;;12.30;88.50;;;;;;5015001;28;20438;-69
2022/04/16 09:50:27;;;;;;;1.20;1.00;;;12.60;87.00;;;;;;5015269;28;20620;-69
2022/04/16 09:52:55;;;;;;;1.60;1.13;;;12.60;84.90;;;;;;5014345;28;20749;-69
2022/04/16 09:55:24;;;;;;;1.23;1.10;;;12.00;86.10;;;;;;5013793;28;20435;-69
2022/04/16 09:57:52;;;;;;;1.17;1.07;;;11.20;87.80;;;;;;5013620;28;20519;-68
2022/04/16 10:00:18;;;;;;;1.00;0.90;;;11.10;89.70;;;;;;5013777;28;20435;-68
2022/04/16 10:02:44;;;;;;;1.77;0.80;;;11.50;91.00;;;;;;5013649;28;20498;-69
2022/04/16 10:05:10;;;;;;;0.80;0.80;;;11.70;91.40;;;;;;5013504;28;20192;-68
2022/04/16 10:07:37;;;;;;;0.80;0.80;;;11.40;90.50;;;;;;5013797;28;20435;-69
2022/04/16 10:10:06;;;;;;;1.60;1.00;;;11.30;91.10;;;;;;5013545;28;20423;-67
2022/04/16 10:15:23;;;;;;;0.97;0.80;;;11.10;91.50;;;;;;5013431;28;20470;-68
2022/04/16 10:17:51;;;;;;;0.90;0.80;;;11.00;91.80;;;;;;5013521;28;20411;-69
2022/04/16 10:20:18;;;;;;;1.10;0.90;;;11.10;91.70;;;;;;5013449;28;20427;-67
2022/04/16 10:23:04;;;;;;;1.27;1.17;;;11.10;88.70;;;;;;5013083;28;20415;-68
2022/04/16 10:25:34;;;;;;;4.60;1.23;;;11.00;89.40;;;;;;5013279;28;20446;-68
2022/04/16 10:28:08;;;;;;;1.40;1.30;;;11.00;90.10;;;;;;5025107;28;20411;-68
2022/04/16 10:30:49;;;;;;;2.00;1.20;;;10.60;90.30;;;;;;5033976;28;20476;-68
2022/04/16 10:33:22;;;;;;;1.50;1.40;;;10.80;90.80;;;;;;5024099;28;20440;-68
2022/04/16 10:35:59;;;;;;;1.47;0.90;;;10.50;88.70;;;;;;5013441;28;20413;-68
2022/04/16 10:38:35;;;;;;;1.10;1.00;;;10.60;88.30;;;;;;5012940;28;20410;-68
2022/04/16 10:41:08;;;;;;;0.70;0.70;;;10.70;85.70;;;;;;5011879;28;20832;-68
2022/04/16 10:43:34;;;;;;;0.80;0.80;;;10.80;85.80;;;;;;5013015;28;20506;-69
2022/04/16 10:46:04;;;;;;;1.57;1.27;;;10.90;85.30;;;;;;5013104;28;20486;-68
2022/04/16 10:48:38;;;;;;;0.90;0.90;;;10.80;87.00;;;;;;5012716;28;20169;-68
2022/04/16 10:51:08;;;;;;;1.20;0.87;;;10.80;88.20;;;;;;5012619;28;20927;-68
2022/04/16 10:53:35;;;;;;;1.00;0.90;;;10.80;89.20;;;;;;5013271;28;20419;-68
2022/04/16 10:56:20;;;;;;;5.07;1.03;;;10.70;86.40;;;;;;5012115;28;20939;-68
2022/04/16 10:58:48;;;;;;;0.80;0.80;;;10.90;87.50;;;;;;5014023;28;20427;-69
2022/04/16 11:01:23;;;;;;;1.03;0.93;;;11.00;88.20;;;;;;5013860;28;20768;-69
2022/04/16 11:03:49;;;;;;;1.00;0.80;;;11.10;87.80;;;;;;5014557;28;20458;-70
2022/04/16 11:06:17;;;;;;;1.47;0.97;;;11.10;87.30;;;;;;5013315;28;20497;-68
2022/04/16 11:08:45;;;;;;;1.37;0.97;;;10.90;85.00;;;;;;5013215;28;20427;-68
2022/04/16 11:11:12;;;;;;;0.80;0.80;;;11.10;87.40;;;;;;5011419;28;20419;-67
2022/04/16 11:13:39;;;;;;;1.00;0.70;;;11.00;86.40;;;;;;5012510;28;20918;-68
2022/04/16 11:16:05;;;;;;;1.03;0.93;;;11.10;88.10;;;;;;5012705;28;20415;-67
2022/04/16 11:18:44;;;;;;;0.83;0.83;;;11.20;88.40;;;;;;5012512;28;20781;-67
2022/04/16 11:21:20;;;;;;;1.60;1.20;;;11.10;87.60;;;;;;5012361;28;20897;-68
2022/04/16 11:23:48;;;;;;;0.90;0.80;;;11.00;84.10;;;;;;5012659;28;20447;-68
2022/04/16 11:34:34;;;;;;;0.90;0.90;;;11.20;85.90;;;;;;5011228;28;20514;-69
2022/04/16 11:37:00;;;;;;;0.60;0.60;;;11.30;84.70;;;;;;5011425;28;20432;-68
2022/04/16 11:39:34;;;;;;;0.93;0.83;;;11.30;84.80;;;;;;5012079;28;20879;-68
2022/04/16 11:42:04;;;;;;;0.80;0.80;;;11.40;85.80;;;;;;5012131;28;20426;-68
2022/04/16 11:44:41;;;;;;;0.90;0.80;;;11.30;85.10;;;;;;5012247;28;20480;-68
2022/04/16 11:47:15;;;;;;;0.80;0.80;;;11.20;85.50;;;;;;5014615;28;20811;-68
2022/04/16 11:49:49;;;;;;;0.70;0.70;;;11.40;85.90;;;;;;5012041;28;20538;-70
2022/04/16 11:52:15;;;;;;;0.80;0.80;;;11.50;86.20;;;;;;5012133;28;20416;-69
2022/04/16 11:54:41;;;;;;;0.60;0.60;;;11.40;87.10;;;;;;5011908;28;20415;-69
2022/04/16 11:57:06;;;;;;;0.90;0.70;;;11.60;88.80;;;;;;5012173;28;20502;-69
2022/04/16 11:59:33;;;;;;;1.33;0.80;;;11.90;89.70;;;;;;5012016;28;20475;-69
2022/04/16 12:02:06;;;;;;;1.40;1.30;;;12.00;87.50;;;;;;5011874;28;20181;-68
2022/04/16 12:04:44;;;;;;;0.97;0.77;;;11.90;86.80;;;;;;5012285;28;20514;-68
2022/04/16 12:07:17;;;;;;;0.70;0.70;;;11.70;85.70;;;;;;5012247;28;20443;-70
2022/04/16 12:09:44;;;;;;;0.70;0.70;;;11.90;86.30;;;;;;5020497;28;20964;-68
2022/04/16 12:12:14;;;;;;;0.60;0.60;;;12.10;83.10;;;;;;5016894;28;20418;-68
2022/04/16 12:14:46;;;;;;;1.83;1.00;;;12.30;80.40;;;;;;5020679;28;20909;-68
2022/04/16 12:17:19;;;;;;;2.83;0.83;;;12.10;79.20;;;;;;5017364;28;20419;-68
2022/04/16 12:19:45;;;;;;;0.70;0.60;;;12.20;80.00;;;;;;5017274;28;20437;-69
2022/04/16 12:22:16;;;;;;;0.90;0.80;;;12.40;79.40;;;;;;5019244;28;20403;-68
2022/04/16 12:24:41;;;;;;;0.80;0.80;;;12.50;80.60;;;;;;5016946;28;20194;-69
2022/04/16 12:27:07;;;;;;;0.80;0.80;;;12.30;81.00;;;;;;5021919;28;20469;-68
2022/04/16 12:29:32;;;;;;;0.87;0.87;;;12.30;79.80;;;;;;5023083;28;20188;-69
2022/04/16 12:31:59;;;;;;;0.60;0.60;;;12.40;77.70;;;;;;5016801;28;20234;-68
2022/04/16 12:34:26;;;;;;;0.80;0.70;;;12.40;76.70;;;;;;5015787;28;20188;-69
2022/04/16 12:36:52;;;;;;;0.97;0.70;;;12.50;76.20;;;;;;5016206;28;20464;-68
2022/04/16 12:39:18;;;;;;;0.70;0.67;;;12.80;75.40;;;;;;5016658;28;20446;-69
2022/04/16 12:41:43;;;;;;;0.70;0.70;;;12.60;70.40;;;;;;5020131;28;20444;-69
2022/04/16 12:44:09;;;;;;;2.30;0.77;;;12.30;69.50;;;;;;5022265;28;20214;-70
2022/04/16 12:46:34;;;;;;;1.47;0.80;;;12.50;69.80;;;;;;5022050;28;20255;-69
2022/04/16 12:49:00;;;;;;;0.70;0.60;;;12.40;70.80;;;;;;5022031;28;20216;-68
2022/04/16 12:51:26;;;;;;;1.60;0.70;;;12.40;71.40;;;;;;5021674;28;20176;-69
2022/04/16 12:53:52;;;;;;;0.60;0.60;;;12.50;72.00;;;;;;5021295;28;20192;-69
2022/04/16 12:56:18;;;;;;;1.23;0.97;;;12.70;71.80;;;;;;5035127;28;20521;-68
2022/04/16 12:58:44;;;;;;;0.70;0.70;;;12.70;71.30;;;;;;5038345;28;20461;-68
2022/04/16 13:01:10;;;;;;;0.70;0.70;;;12.70;69.90;;;;;;5039730;28;20172;-69
2022/04/16 13:03:35;;;;;;;0.90;0.90;;;12.60;69.80;;;;;;5042414;28;20563;-69
2022/04/16 13:06:02;;;;;;;1.00;0.70;;;12.60;70.20;;;;;;5043462;28;20220;-69
2022/04/16 13:08:30;;;;;;;0.63;0.63;;;12.60;69.10;;;;;;5044810;28;20732;-69
2022/04/16 13:10:56;;;;;;;1.33;0.77;;;12.50;68.10;;;;;;5027286;28;20418;-69
2022/04/16 13:13:21;;;;;;;0.80;0.80;;;12.50;66.70;;;;;;5020284;28;20399;-68
2022/04/16 13:15:47;;;;;;;3.50;0.80;;;12.80;68.80;;;;;;5021738;28;20408;-68